Antoine, Arkansas
Current Conditions -  °F | °C
As of 12:09 AM on Wednesday 22 Oct 2014 (Local Time) from KADF Reporting Station
Haze Haze  
Wind Chill: 14°   Ceiling: Unl
Heat Index: 14°   Visibility: 2.5mi
Dew Point: 14°   Wind: 0mph
Humidity: 100%   Direction: NA
Pressure: 30.1"   Gusts: NA
Location:  34.04°N, 93.42°W
Report Text: KADF 220509Z AUTO 00000KT 2 1/2SM BR CLR 14/14 A3010 RMK AO2
Loading
Personal Weather Stations






























Interactive Weather Map
Tropical Storm Tracking
New forecast layout! Learn more

10-Day Weather Forecast

Advertisements
Track Severe Weather on mobile